• Join FlightAware (Why Join?)
  • Login
  • US Flag 
06:47PM EDT


 

Airport Tracker/Info


-or-


 

Live Flight TrackerFlight Track Log ✈ EJA695 ✈ 12-Jul-2013 ✈ KSBA - KTUS

Flight Track Log - Related Links

Times and Time Zones

All times are in EDT time to prevent confusion due to time zone crossing. See the EJA695 flight status page for this flight to view local times or setup timezone preferences in your user account.

Time Position Orientation Groundspeed Altitude Reporting Facility
EDT Latitude Longitude Course Direction KTS MPH feet Rate Location/Type
10:44AM 34.4283 -119.8322 131° Southeast 149 171 900  Level Los Angeles Center
10:45AM 34.3844 -119.7708 131° Southeast 206 237 3,500 2,400 Climbing Los Angeles Center
10:46AM 34.3156 -119.7408 160° South 230 265 6,400 2,700 Climbing Los Angeles Center
10:47AM 34.2431 -119.7019 156° South 272 313 9,100 2,400 Climbing Los Angeles Center
10:48AM 34.1678 -119.6600 155° Southeast 291 335 11,400 2,340 Climbing Los Angeles Center
10:49AM 34.1097 -119.5778 130° Southeast 319 367 14,000 2,400 Climbing Los Angeles Center
10:51AM 34.0464 -119.4756 127° Southeast 318 366 16,900 2,280 Climbing Los Angeles Center
10:52AM 33.9933 -119.3878 126° Southeast 326 375 19,200 2,220 Climbing Los Angeles Center
10:53AM 33.9253 -119.2825 128° Southeast 334 384 21,600 1,920 Climbing Los Angeles Center
10:54AM 33.8686 -119.1919 127° Southeast 339 390 23,300 1,320 Climbing Los Angeles Center
10:55AM 33.8169 -119.0903 121° Southeast 359 413 24,400 1,020 Climbing Los Angeles Center
10:56AM 33.8089 -118.9614 94° East 385 443 25,500 1,200 Climbing Los Angeles Center
10:57AM 33.8014 -118.8053 93° East 392 451 26,900 960 Climbing Los Angeles Center
10:58AM 33.7961 -118.7000 93° East 396 456 27,600 780 Climbing Los Angeles Center
10:59AM 33.7872 -118.5386 94° East 402 463 28,600 900 Climbing Los Angeles Center
11:00AM 33.7794 -118.4050 94° East 405 466 29,500 840 Climbing Los Angeles Center
11:01AM 33.7711 -118.2689 94° East 408 470 30,400 1,020 Climbing Los Angeles Center
11:02AM 33.7628 -118.1197 94° East 407 468 31,700 1,200 Climbing Los Angeles Center
11:03AM 33.7547 -117.9878 94° East 399 459 32,900 600 Climbing Los Angeles Center
11:04AM 33.7467 -117.8561 94° East 397 457 33,000  Climbing Los Angeles Center
11:05AM 33.7378 -117.7219 95° East 403 464 33,000  Level Los Angeles Center
11:06AM 33.7272 -117.5619 94° East 403 464 33,000  Level Los Angeles Center
11:07AM 33.7186 -117.4289 94° East 402 463 33,000  Level Los Angeles Center
11:08AM 33.7086 -117.2717 94° East 396 456 33,000  Level Los Angeles Center
11:09AM 33.7000 -117.1419 95° East 393 452 33,000  Level Los Angeles Center
11:10AM 33.6914 -117.0125 95° East 390 449 33,000  Level Los Angeles Center
11:12AM 33.6750 -116.8847 99° East 391 450 33,000  Level Los Angeles Center
11:13AM 33.6533 -116.7447 100° East 387 445 33,000  Level Los Angeles Center
11:14AM 33.6333 -116.6172 101° East 388 447 33,000  Level Los Angeles Center
11:15AM 33.6136 -116.4881 100° East 391 450 33,000  Level Los Angeles Center
11:16AM 33.5900 -116.3322 100° East 394 453 33,000  Level Los Angeles Center
11:17AM 33.5689 -116.2008 101° East 398 458 33,000  Level Los Angeles Center
11:18AM 33.5481 -116.0703 101° East 398 458 33,000  Level Los Angeles Center
11:19AM 33.5275 -115.9414 101° East 395 455 33,000  Level Los Angeles Center
11:20AM 33.5053 -115.8117 102° East 396 456 33,000  Level Los Angeles Center
11:21AM 33.4856 -115.6831 100° East 395 455 33,000  Level Los Angeles Center
11:22AM 33.4597 -115.5289 101° East 393 452 33,000  Level Los Angeles Center
11:23AM 33.4344 -115.3753 101° East 391 450 33,000  Level Los Angeles Center
11:24AM 33.4125 -115.2469 102° East 393 452 33,000  Level Los Angeles Center
11:25AM 33.3900 -115.1183 102° East 394 453 33,000  Level Los Angeles Center
11:27AM 33.3647 -114.9656 101° East 392 451 33,000  Level Los Angeles Center
11:28AM 33.3394 -114.8114 101° East 393 452 33,000  Level Los Angeles Center
11:29AM 33.3133 -114.6600 102° East 388 447 33,000  Level Los Angeles Center
11:30AM 33.2914 -114.5331 102° East 390 449 33,000  Level Los Angeles Center
11:31AM 33.2697 -114.4067 102° East 389 448 33,000  Level Los Angeles Center
11:32AM 33.2469 -114.2817 102° East 386 444 33,000  Level Los Angeles Center
11:33AM 33.2297 -114.1636 100° East 384 442 33,000  Level Albuquerque Center
11:34AM 33.2069 -114.0392 102° East 384 442 33,000  Level Albuquerque Center
11:35AM 33.1853 -113.9142 102° East 384 442 33,000  Level Albuquerque Center
11:36AM 33.1589 -113.7642 102° East 385 443 33,000 -540 Level Albuquerque Center
11:37AM 33.1361 -113.6408 102° East 382 440 32,000 -1,020 Descending Albuquerque Center
11:38AM 33.1131 -113.5161 102° East 383 441 31,000 -960 Descending Albuquerque Center
11:39AM 33.0978 -113.3900 98° East 382 440 30,100 -1,080 Descending Albuquerque Center
11:40AM 33.0956 -113.2603 91° East 385 443 28,800 -1,500 Descending Albuquerque Center
11:41AM 33.0897 -113.1303 93° East 389 448 27,000 -1,620 Descending Albuquerque Center
11:42AM 33.0678 -112.9769 100° East 388 447 25,500 -1,020 Descending Albuquerque Center
11:43AM 33.0242 -112.8564 113° Southeast 389 448 25,000 -300 Descending Albuquerque Center
11:44AM 32.9797 -112.7347 114° Southeast 395 455 25,000  Level Albuquerque Center
11:45AM 32.9336 -112.6144 115° Southeast 397 457 25,000  Level Albuquerque Center
11:46AM 32.8878 -112.4942 114° Southeast 398 458 25,000  Level Albuquerque Center
11:47AM 32.8417 -112.3744 115° Southeast 398 458 25,000 -780 Level Albuquerque Center
11:48AM 32.7967 -112.2558 114° Southeast 394 453 23,400 -1,800 Descending Albuquerque Center
11:49AM 32.7422 -112.1189 115° Southeast 395 455 21,300 -1,920 Descending Albuquerque Center
11:50AM 32.6983 -112.0058 115° Southeast 386 444 19,500 -1,800 Descending Albuquerque Center
11:51AM 32.6544 -111.8919 115° Southeast 383 441 17,700 -1,740 Descending Albuquerque Center
11:52AM 32.6103 -111.7800 115° Southeast 380 437 16,000 -1,860 Descending Albuquerque Center
11:53AM 32.5739 -111.6892 115° Southeast 376 433 14,600 -1,680 Descending Albuquerque Center
11:55AM 32.5033 -111.5536 122° Southeast 356 410 12,600 -1,440 Descending Albuquerque Center
11:56AM 32.4544 -111.4617 122° Southeast 341 392 11,200 -1,380 Descending Albuquerque Center
11:56AM 32.4094 -111.3869 125° Southeast 298 343 10,000 -1,260 Descending Albuquerque Center
11:58AM 32.3664 -111.3031 121° Southeast 286 329 8,700 -1,200 Descending Albuquerque Center
11:59AM 32.3172 -111.2197 125° Southeast 282 325 7,500 -1,260 Descending Albuquerque Center
12:00PM 32.2750 -111.1456 124° Southeast 276 318 6,300 -1,080 Descending Albuquerque Center
12:00PM 32.2375 -111.0850 126° Southeast 249 287 5,500 -780 Descending Albuquerque Center
12:01PM 32.2033 -111.0414 133° Southeast 204 235 4,900 -840 Descending Albuquerque Center
12:02PM 32.1700 -111.0025 135° Southeast 165 190 3,900 -840 Descending Albuquerque Center
12:03PM 32.1433 -110.9744 138° Southeast 131 151 3,300 -600 Descending Albuquerque Center
12:05PM 32.1161 -110.9410 140° Southeast  Level Estimated
12:12PM 32.1161 -110.9410 140° Southeast  Level Estimated